Time;durP1;ratioP1;P1;durP2;ratioP2;P2;SDS_P1;SDS_P2;PMS_P1;PMS_P2;Temp;Humidity;BMP_temperature;BMP_pressure;BME280_temperature;BME280_humidity;BME280_pressure;Samples;Min_cycle;Max_cycle;Signal;HPM_P1;HPM_P2
2024/03/03 11:03:11;;;;;;;;;11.25;9.50;;;;;;;;4988731;27;13409;-68
2024/03/03 11:05:37;;;;;;;;;9.75;6.50;;;;;;;;5046084;28;11526;-68
2024/03/03 11:08:06;;;;;;;;;21.00;17.00;;;;;;;;5047071;28;8804;-67
2024/03/03 11:10:32;;;;;;;;;11.25;8.00;;;;;;;;5022185;28;11636;-67
2024/03/03 11:12:58;;;;;;;;;12.50;10.25;;;;;;;;5050189;28;10925;-67
2024/03/03 11:15:25;;;;;;;;;2.75;2.50;;;;;;;;5051456;28;10940;-67
2024/03/03 11:18:10;;;;;;;;;3.50;3.50;;;;;;;;5062165;28;8869;-67
2024/03/03 11:20:39;;;;;;;;;2.25;2.25;;;;;;;;5040263;28;10753;-68
2024/03/03 11:23:13;;;;;;;;;2.50;2.00;;;;;;;;5046834;28;10949;-68
2024/03/03 11:25:42;;;;;;;;;2.25;2.25;;;;;;;;5046730;28;11639;-69
2024/03/03 11:28:10;;;;;;;;;2.00;2.00;;;;;;;;5046519;28;11496;-69
2024/03/03 11:30:36;;;;;;;;;5.00;3.00;;;;;;;;5044732;28;10990;-69
2024/03/03 11:33:01;;;;;;;;;3.50;3.25;;;;;;;;5046727;28;11118;-68
2024/03/03 11:35:28;;;;;;;;;3.25;2.00;;;;;;;;5046749;28;8823;-68
2024/03/03 11:37:53;;;;;;;;;4.00;2.25;;;;;;;;5046744;28;8810;-68
2024/03/03 11:40:20;;;;;;;;;5.00;3.00;;;;;;;;5009956;28;11054;-71
2024/03/03 11:42:46;;;;;;;;;5.75;3.25;;;;;;;;5051911;28;8831;-69
2024/03/03 11:45:11;;;;;;;;;3.00;3.00;;;;;;;;5045496;28;11421;-71
2024/03/03 11:47:39;;;;;;;;;4.50;4.00;;;;;;;;5045376;28;11503;-71
2024/03/03 11:50:20;;;;;;;;;4.75;2.50;;;;;;;;5045088;28;8813;-71
2024/03/03 11:52:49;;;;;;;;;3.00;3.00;;;;;;;;5046683;28;11008;-72
2024/03/03 11:55:14;;;;;;;;;3.75;3.50;;;;;;;;5046285;28;11102;-70
2024/03/03 11:57:40;;;;;;;;;4.00;4.00;;;;;;;;5046460;28;11384;-69
2024/03/03 12:00:13;;;;;;;;;3.50;3.25;;;;;;;;5044856;28;8906;-69
2024/03/03 12:02:40;;;;;;;;;2.25;2.25;;;;;;;;5045065;28;8827;-69
2024/03/03 12:05:14;;;;;;;;;4.25;4.25;;;;;;;;5061455;28;11200;-69
2024/03/03 12:07:42;;;;;;;;;4.00;4.00;;;;;;;;5064178;28;11049;-70
2024/03/03 12:10:14;;;;;;;;;2.75;2.75;;;;;;;;5061184;28;11577;-69
2024/03/03 12:12:40;;;;;;;;;4.00;4.00;;;;;;;;5062322;28;11507;-70
2024/03/03 12:15:05;;;;;;;;;5.00;3.00;;;;;;;;5052287;28;11405;-69
2024/03/03 12:17:30;;;;;;;;;3.50;2.75;;;;;;;;5050153;28;9007;-69
2024/03/03 12:19:57;;;;;;;;;4.75;3.75;;;;;;;;5041274;28;8902;-71
2024/03/03 12:22:22;;;;;;;;;4.00;4.00;;;;;;;;5052738;28;8853;-69
2024/03/03 12:24:57;;;;;;;;;3.00;3.00;;;;;;;;5052370;28;11448;-69
2024/03/03 12:27:23;;;;;;;;;4.00;4.00;;;;;;;;5052760;28;8881;-69
2024/03/03 12:30:05;;;;;;;;;3.25;3.00;;;;;;;;5049182;28;11417;-68
2024/03/03 12:32:30;;;;;;;;;4.00;4.00;;;;;;;;5043065;28;8807;-68
2024/03/03 12:34:58;;;;;;;;;3.00;3.00;;;;;;;;5043404;28;12207;-68
2024/03/03 12:37:23;;;;;;;;;2.00;2.00;;;;;;;;5049828;28;8959;-68
2024/03/03 12:39:49;;;;;;;;;7.00;6.25;;;;;;;;5031300;28;11447;-70
2024/03/03 12:42:15;;;;;;;;;8.50;8.50;;;;;;;;5051099;28;8867;-68
2024/03/03 12:44:40;;;;;;;;;3.00;3.00;;;;;;;;5051191;28;8809;-67
2024/03/03 12:47:11;;;;;;;;;6.00;3.25;;;;;;;;5052034;28;8793;-68
2024/03/03 12:49:36;;;;;;;;;4.00;4.00;;;;;;;;5032245;28;8922;-67
2024/03/03 12:52:02;;;;;;;;;5.50;4.50;;;;;;;;5051081;28;11325;-68
2024/03/03 12:54:27;;;;;;;;;4.00;3.00;;;;;;;;5045765;28;8812;-68
2024/03/03 12:56:52;;;;;;;;;4.00;3.00;;;;;;;;5032196;28;8796;-67
2024/03/03 12:59:19;;;;;;;;;2.25;2.25;;;;;;;;5030943;28;8842;-71
2024/03/03 14:06:45;;;;;;;;;3.50;3.50;;;;;;;;5105070;27;13389;-78
2024/03/03 14:09:10;;;;;;;;;3.00;2.00;;;;;;;;5106599;28;11404;-78
2024/03/03 14:11:36;;;;;;;;;3.00;3.00;;;;;;;;5107214;27;8820;-78
2024/03/03 14:14:01;;;;;;;;;2.50;2.50;;;;;;;;5106295;28;8803;-78
2024/03/03 14:16:27;;;;;;;;;5.75;4.75;;;;;;;;5106353;28;8812;-79
2024/03/03 14:18:57;;;;;;;;;3.25;3.00;;;;;;;;5105890;28;8812;-74
2024/03/03 14:21:22;;;;;;;;;4.25;4.25;;;;;;;;5106257;28;8792;-78
2024/03/03 14:23:48;;;;;;;;;2.00;2.00;;;;;;;;5107361;28;11384;-80
2024/03/03 14:26:13;;;;;;;;;2.50;2.50;;;;;;;;5106274;28;8811;-80
2024/03/03 14:28:38;;;;;;;;;7.25;3.25;;;;;;;;5107697;28;8800;-84
2024/03/03 14:31:03;;;;;;;;;3.00;3.00;;;;;;;;5105971;28;8788;-80
2024/03/03 14:33:29;;;;;;;;;5.25;4.00;;;;;;;;5107268;28;9004;-80
2024/03/03 14:35:54;;;;;;;;;4.25;3.75;;;;;;;;5107401;28;8814;-85
2024/03/03 14:38:19;;;;;;;;;4.25;4.25;;;;;;;;5106010;28;8788;-82
2024/03/03 14:40:45;;;;;;;;;5.50;3.00;;;;;;;;5106097;28;8893;-80
2024/03/03 14:43:11;;;;;;;;;3.50;3.00;;;;;;;;5107051;28;8907;-74
2024/03/03 14:45:36;;;;;;;;;3.50;3.00;;;;;;;;5107059;28;11508;-74
2024/03/03 14:48:01;;;;;;;;;6.25;6.00;;;;;;;;5107268;28;8776;-78
2024/03/03 14:50:27;;;;;;;;;3.25;3.25;;;;;;;;5114311;27;8875;-75
2024/03/03 14:52:54;;;;;;;;;3.00;3.00;;;;;;;;5127032;27;8908;-77
2024/03/03 14:55:19;;;;;;;;;3.25;3.25;;;;;;;;5126281;27;8809;-76
2024/03/03 14:57:44;;;;;;;;;3.75;3.75;;;;;;;;5126422;27;12140;-74
2024/03/03 15:00:12;;;;;;;;;6.50;3.00;;;;;;;;5123635;27;8817;-78
2024/03/03 15:02:37;;;;;;;;;4.25;4.25;;;;;;;;5121583;28;8780;-78
2024/03/03 15:05:02;;;;;;;;;3.00;3.00;;;;;;;;5106157;28;11440;-73
2024/03/03 15:07:28;;;;;;;;;5.00;5.00;;;;;;;;5106546;28;8925;-73
2024/03/03 15:09:53;;;;;;;;;3.00;3.00;;;;;;;;5107922;27;8811;-72
2024/03/03 15:12:19;;;;;;;;;7.00;3.00;;;;;;;;5086711;28;8814;-72
2024/03/03 15:14:44;;;;;;;;;4.25;3.00;;;;;;;;5104971;28;8800;-79
2024/03/03 15:17:20;;;;;;;;;6.25;4.25;;;;;;;;5096356;28;8832;-78
2024/03/03 15:19:45;;;;;;;;;4.25;4.25;;;;;;;;5099145;28;8807;-73
2024/03/03 15:22:11;;;;;;;;;3.75;3.25;;;;;;;;5092515;28;12277;-76
2024/03/03 15:24:37;;;;;;;;;7.00;7.00;;;;;;;;5092357;28;8784;-74
2024/03/03 15:27:03;;;;;;;;;3.25;3.25;;;;;;;;5093022;28;9533;-75
2024/03/03 15:29:28;;;;;;;;;5.50;4.50;;;;;;;;5090041;28;11436;-75
2024/03/03 15:31:54;;;;;;;;;6.25;5.25;;;;;;;;5091349;28;8908;-75
2024/03/03 15:34:19;;;;;;;;;6.50;5.25;;;;;;;;5092471;28;8827;-75
2024/03/03 15:36:44;;;;;;;;;3.50;3.50;;;;;;;;5093067;28;8807;-74
2024/03/03 15:39:10;;;;;;;;;7.75;5.75;;;;;;;;5091597;28;8811;-74
2024/03/03 15:41:35;;;;;;;;;4.25;4.25;;;;;;;;5092068;28;8850;-76
2024/03/03 15:44:01;;;;;;;;;3.50;3.00;;;;;;;;5092217;28;8814;-75
2024/03/03 15:46:27;;;;;;;;;3.00;3.00;;;;;;;;5092512;28;8818;-76
2024/03/03 15:48:53;;;;;;;;;4.50;3.75;;;;;;;;5091629;28;11380;-75
2024/03/03 15:51:18;;;;;;;;;3.00;3.00;;;;;;;;5089607;28;8792;-74
2024/03/03 15:53:43;;;;;;;;;3.50;3.50;;;;;;;;5086246;28;11449;-73
2024/03/03 15:56:09;;;;;;;;;6.00;4.25;;;;;;;;5092364;28;8780;-73
2024/03/03 15:58:34;;;;;;;;;3.50;3.50;;;;;;;;5091651;28;8899;-73
2024/03/03 16:00:59;;;;;;;;;4.25;4.00;;;;;;;;5087489;28;8820;-73
2024/03/03 16:03:24;;;;;;;;;6.00;4.25;;;;;;;;5095077;28;8801;-73
2024/03/03 16:05:50;;;;;;;;;4.25;4.25;;;;;;;;5112083;28;8841;-74
2024/03/03 16:08:16;;;;;;;;;5.50;4.25;;;;;;;;5112692;28;8832;-73
2024/03/03 16:10:42;;;;;;;;;5.75;4.25;;;;;;;;5109802;28;8882;-76
2024/03/03 16:13:07;;;;;;;;;7.25;4.25;;;;;;;;5112125;28;11368;-73
2024/03/03 16:15:32;;;;;;;;;3.25;3.00;;;;;;;;5020201;28;9828;-76
2024/03/03 16:17:58;;;;;;;;;6.00;4.25;;;;;;;;5010580;28;8834;-76
2024/03/03 16:20:23;;;;;;;;;6.00;6.00;;;;;;;;4973442;28;11121;-76
2024/03/03 16:22:49;;;;;;;;;8.25;6.50;;;;;;;;5031590;28;8833;-77
2024/03/03 16:25:15;;;;;;;;;5.75;5.00;;;;;;;;5030003;28;8969;-76
2024/03/03 16:27:40;;;;;;;;;4.75;4.25;;;;;;;;5046060;28;8812;-77
2024/03/03 16:30:07;;;;;;;;;3.75;3.00;;;;;;;;5025027;28;11426;-72
2024/03/03 16:32:32;;;;;;;;;7.00;5.00;;;;;;;;5017307;28;8803;-71
2024/03/03 16:34:57;;;;;;;;;5.75;5.75;;;;;;;;5011830;28;11484;-71
2024/03/03 16:37:23;;;;;;;;;6.00;4.25;;;;;;;;5013654;28;8802;-77
2024/03/03 16:39:50;;;;;;;;;7.75;6.00;;;;;;;;5030247;28;8831;-72
2024/03/03 16:42:15;;;;;;;;;5.75;4.25;;;;;;;;5031089;28;8893;-73
2024/03/03 16:44:40;;;;;;;;;8.00;4.25;;;;;;;;5030971;28;11510;-70
2024/03/03 16:47:06;;;;;;;;;6.00;6.00;;;;;;;;5026840;28;8960;-70
2024/03/03 16:49:31;;;;;;;;;6.75;6.75;;;;;;;;5028542;28;8835;-71
2024/03/03 16:51:56;;;;;;;;;8.00;7.50;;;;;;;;5028777;28;8794;-68
2024/03/03 16:54:24;;;;;;;;;6.75;6.75;;;;;;;;5030758;28;8822;-75
2024/03/03 16:56:49;;;;;;;;;8.00;7.00;;;;;;;;5030972;28;8784;-71
2024/03/03 16:59:17;;;;;;;;;6.75;6.75;;;;;;;;5026578;28;11466;-70
2024/03/03 17:01:43;;;;;;;;;7.00;7.00;;;;;;;;5027319;28;8800;-70
2024/03/03 17:04:08;;;;;;;;;7.00;7.00;;;;;;;;5030460;28;12198;-70
2024/03/03 17:06:34;;;;;;;;;7.50;7.50;;;;;;;;5027109;28;9933;-69
2024/03/03 17:09:00;;;;;;;;;8.00;8.00;;;;;;;;4997854;28;10269;-68
2024/03/03 17:11:26;;;;;;;;;7.00;7.00;;;;;;;;5026856;28;11561;-68
2024/03/03 17:13:52;;;;;;;;;9.25;8.00;;;;;;;;5030600;28;8788;-68
2024/03/03 17:16:17;;;;;;;;;7.00;7.00;;;;;;;;4979114;28;11461;-68
2024/03/03 17:18:43;;;;;;;;;11.75;8.00;;;;;;;;5024743;28;8824;-67
2024/03/03 17:21:08;;;;;;;;;13.00;10.50;;;;;;;;5032833;28;8823;-67
2024/03/03 17:23:33;;;;;;;;;7.00;7.00;;;;;;;;5028911;28;8815;-67
2024/03/03 17:25:59;;;;;;;;;14.00;12.00;;;;;;;;5027181;28;9682;-67
2024/03/03 17:28:24;;;;;;;;;40.50;36.75;;;;;;;;5024642;28;8927;-68
2024/03/03 17:30:50;;;;;;;;;12.75;11.00;;;;;;;;5030020;28;8808;-68
2024/03/03 17:33:15;;;;;;;;;8.00;8.00;;;;;;;;5029040;28;8792;-68
2024/03/03 17:35:41;;;;;;;;;12.50;12.00;;;;;;;;5028589;28;11510;-68
2024/03/03 17:38:06;;;;;;;;;8.00;8.00;;;;;;;;5029374;28;8808;-70
2024/03/03 17:40:32;;;;;;;;;8.50;7.00;;;;;;;;5030166;28;8886;-69
2024/03/03 17:42:57;;;;;;;;;12.00;7.75;;;;;;;;5027536;28;8823;-69
2024/03/03 17:45:24;;;;;;;;;12.00;11.00;;;;;;;;5030140;28;8933;-70
2024/03/03 17:47:50;;;;;;;;;12.25;10.00;;;;;;;;5029492;28;9734;-70
2024/03/03 17:50:15;;;;;;;;;11.50;7.75;;;;;;;;5030228;28;11887;-69
2024/03/03 17:52:42;;;;;;;;;7.00;6.75;;;;;;;;5030006;28;8784;-68
2024/03/03 17:55:08;;;;;;;;;12.00;11.75;;;;;;;;5030023;28;9626;-68
2024/03/03 17:57:35;;;;;;;;;8.75;8.75;;;;;;;;5027420;28;11429;-70
2024/03/03 18:00:00;;;;;;;;;12.00;11.75;;;;;;;;5028416;28;11457;-70
2024/03/03 18:02:26;;;;;;;;;9.25;8.00;;;;;;;;5027665;28;12214;-71
2024/03/03 18:04:51;;;;;;;;;11.25;11.25;;;;;;;;5029506;28;8851;-70
2024/03/03 18:07:16;;;;;;;;;8.00;8.00;;;;;;;;5028318;28;8830;-71
2024/03/03 18:09:44;;;;;;;;;11.00;8.50;;;;;;;;5029435;28;8800;-70
2024/03/03 18:12:10;;;;;;;;;12.00;8.00;;;;;;;;5028546;28;8800;-70
2024/03/03 18:14:36;;;;;;;;;17.50;14.00;;;;;;;;5029525;28;11604;-71
2024/03/03 18:17:01;;;;;;;;;14.50;10.00;;;;;;;;5027959;28;8796;-73
2024/03/03 18:19:26;;;;;;;;;8.00;7.00;;;;;;;;5029735;28;11532;-69
2024/03/03 18:21:51;;;;;;;;;0.00;0.00;;;;;;;;5029972;28;8822;-70
2024/03/03 18:24:19;;;;;;;;;10.50;8.50;;;;;;;;5026993;28;8808;-73
2024/03/03 18:26:44;;;;;;;;;8.75;8.75;;;;;;;;5025136;28;8836;-72
2024/03/03 18:29:09;;;;;;;;;14.25;10.25;;;;;;;;5029350;28;11436;-72
2024/03/03 18:31:35;;;;;;;;;11.00;8.00;;;;;;;;5029332;28;8788;-72
2024/03/03 18:34:00;;;;;;;;;9.00;9.00;;;;;;;;5029773;28;8803;-71
2024/03/03 18:36:25;;;;;;;;;23.50;21.00;;;;;;;;5022816;28;9112;-72
2024/03/03 18:38:51;;;;;;;;;11.25;11.00;;;;;;;;5028237;28;8838;-72
2024/03/03 18:41:16;;;;;;;;;43.75;37.50;;;;;;;;5029367;28;8799;-70
2024/03/03 18:43:42;;;;;;;;;12.00;9.00;;;;;;;;5028704;28;8803;-71
2024/03/03 18:46:07;;;;;;;;;15.50;11.50;;;;;;;;5027768;28;8847;-71
2024/03/03 18:48:33;;;;;;;;;1.00;1.00;;;;;;;;5029067;28;8804;-71
2024/03/03 18:50:58;;;;;;;;;2.00;0.00;;;;;;;;5029081;28;8800;-71
2024/03/03 18:53:24;;;;;;;;;0.00;0.00;;;;;;;;5032436;28;8792;-71
2024/03/03 18:55:49;;;;;;;;;0.00;0.00;;;;;;;;5032569;28;8827;-70
2024/03/03 18:58:14;;;;;;;;;0.00;0.00;;;;;;;;5034706;28;8791;-71
2024/03/03 19:00:39;;;;;;;;;0.25;0.00;;;;;;;;5031930;28;9522;-71
2024/03/03 19:03:05;;;;;;;;;0.00;0.00;;;;;;;;5031910;28;8803;-69
2024/03/03 19:05:30;;;;;;;;;0.00;0.00;;;;;;;;5032825;28;9660;-69
2024/03/03 19:07:57;;;;;;;;;0.00;0.00;;;;;;;;5032315;28;8831;-70
2024/03/03 19:10:22;;;;;;;;;0.00;0.00;;;;;;;;5033572;28;8844;-69
2024/03/03 19:12:47;;;;;;;;;0.00;0.00;;;;;;;;5033382;28;11601;-67
2024/03/03 19:15:13;;;;;;;;;0.00;0.00;;;;;;;;5032987;28;8838;-69
2024/03/03 19:17:41;;;;;;;;;0.00;0.00;;;;;;;;5032302;28;8807;-69
2024/03/03 19:20:08;;;;;;;;;1.00;0.00;;;;;;;;5048745;28;8924;-68
2024/03/03 19:22:34;;;;;;;;;0.00;0.00;;;;;;;;5032049;28;11467;-70
2024/03/03 19:25:01;;;;;;;;;0.00;0.00;;;;;;;;5032804;28;11625;-70
2024/03/03 19:27:27;;;;;;;;;0.00;0.00;;;;;;;;5030302;28;11838;-69
2024/03/03 19:29:53;;;;;;;;;0.00;0.00;;;;;;;;5033087;28;8783;-69
2024/03/03 19:32:18;;;;;;;;;0.00;0.00;;;;;;;;5032895;28;11644;-68
2024/03/03 19:34:43;;;;;;;;;1.75;1.75;;;;;;;;5032656;28;8804;-67
2024/03/03 19:37:09;;;;;;;;;0.00;0.00;;;;;;;;5033067;28;8768;-69
2024/03/03 19:39:34;;;;;;;;;1.00;1.00;;;;;;;;5032903;28;8815;-68
2024/03/03 19:42:01;;;;;;;;;5.75;4.00;;;;;;;;5030001;28;8845;-67
2024/03/03 19:44:26;;;;;;;;;0.25;0.25;;;;;;;;5047373;28;8843;-67
2024/03/03 19:46:51;;;;;;;;;0.75;0.75;;;;;;;;5031762;28;11476;-68
2024/03/03 19:49:17;;;;;;;;;1.25;0.25;;;;;;;;5032240;28;8877;-68
2024/03/03 19:51:42;;;;;;;;;8.75;5.00;;;;;;;;5032556;28;8808;-67
2024/03/03 19:54:07;;;;;;;;;1.00;1.00;;;;;;;;5033237;28;8795;-68
2024/03/03 19:56:33;;;;;;;;;7.75;7.75;;;;;;;;5040639;28;8823;-69
2024/03/03 19:58:58;;;;;;;;;33.67;32.33;;;;;;;;5040558;28;8794;-69
2024/03/03 20:01:24;;;;;;;;;1.00;1.00;;;;;;;;5040340;28;8785;-69
2024/03/03 20:03:49;;;;;;;;;1.00;1.00;;;;;;;;5001579;28;10042;-69
2024/03/03 20:06:14;;;;;;;;;2.25;2.00;;;;;;;;4996793;28;8944;-68
2024/03/03 20:08:40;;;;;;;;;1.00;1.00;;;;;;;;5000149;28;8805;-69
2024/03/03 20:11:08;;;;;;;;;0.50;0.00;;;;;;;;5004014;28;8789;-69
2024/03/03 20:13:33;;;;;;;;;6.00;2.00;;;;;;;;5002216;28;8825;-69
2024/03/03 20:15:59;;;;;;;;;2.00;1.00;;;;;;;;4995394;28;11612;-70
2024/03/03 20:18:24;;;;;;;;;0.25;0.25;;;;;;;;4999048;28;8840;-70
2024/03/03 20:20:50;;;;;;;;;0.00;0.00;;;;;;;;5000842;28;8828;-70
2024/03/03 20:23:15;;;;;;;;;0.00;0.00;;;;;;;;4995735;28;8805;-70
2024/03/03 20:25:41;;;;;;;;;1.00;1.00;;;;;;;;4999795;28;8814;-70
2024/03/03 20:28:07;;;;;;;;;0.25;0.25;;;;;;;;4998039;28;8817;-69
2024/03/03 20:30:32;;;;;;;;;1.50;1.00;;;;;;;;5000411;28;8785;-68
2024/03/03 20:32:58;;;;;;;;;0.50;0.50;;;;;;;;5001212;28;11615;-67
2024/03/03 20:35:25;;;;;;;;;3.50;0.50;;;;;;;;4999036;28;8869;-69
2024/03/03 20:37:50;;;;;;;;;0.00;0.00;;;;;;;;5002135;28;8839;-68
2024/03/03 20:40:16;;;;;;;;;0.00;0.00;;;;;;;;5000032;28;11489;-70
2024/03/03 20:42:42;;;;;;;;;0.00;0.00;;;;;;;;5001535;28;8791;-69
2024/03/03 20:45:11;;;;;;;;;0.00;0.00;;;;;;;;4999096;28;11567;-69
2024/03/03 20:47:37;;;;;;;;;0.00;0.00;;;;;;;;5003005;28;11535;-70
2024/03/03 20:50:03;;;;;;;;;1.00;0.00;;;;;;;;5002178;28;11594;-70
2024/03/03 20:52:28;;;;;;;;;0.00;0.00;;;;;;;;5002655;28;8786;-72
2024/03/03 20:54:54;;;;;;;;;0.25;0.00;;;;;;;;5000053;28;11509;-71
2024/03/03 20:57:19;;;;;;;;;0.00;0.00;;;;;;;;5001517;28;8893;-71
2024/03/03 20:59:44;;;;;;;;;0.00;0.00;;;;;;;;5003346;28;8811;-71
2024/03/03 21:02:12;;;;;;;;;0.00;0.00;;;;;;;;5000345;28;8812;-71
2024/03/03 21:04:38;;;;;;;;;0.00;0.00;;;;;;;;5000632;28;9537;-71
2024/03/03 21:07:04;;;;;;;;;0.00;0.00;;;;;;;;5002403;28;11520;-70
2024/03/03 21:09:29;;;;;;;;;0.00;0.00;;;;;;;;5000118;28;12188;-71
2024/03/03 21:11:55;;;;;;;;;0.00;0.00;;;;;;;;5001287;28;8794;-71
2024/03/03 21:14:20;;;;;;;;;0.00;0.00;;;;;;;;5004658;28;8840;-72
2024/03/03 21:16:45;;;;;;;;;0.00;0.00;;;;;;;;4991810;28;8894;-77
2024/03/03 21:19:11;;;;;;;;;0.50;0.00;;;;;;;;5007037;28;8803;-73
2024/03/03 21:21:36;;;;;;;;;0.00;0.00;;;;;;;;5026522;28;8826;-74
2024/03/03 21:24:03;;;;;;;;;0.00;0.00;;;;;;;;5007915;28;9526;-73
2024/03/03 21:26:28;;;;;;;;;0.50;0.00;;;;;;;;4999547;28;8967;-73
2024/03/03 21:28:54;;;;;;;;;0.75;0.00;;;;;;;;5002521;28;11563;-73
2024/03/03 21:31:19;;;;;;;;;1.00;0.00;;;;;;;;5002671;28;8828;-72
2024/03/03 21:33:44;;;;;;;;;0.75;0.00;;;;;;;;4999218;28;8813;-72
2024/03/03 21:36:11;;;;;;;;;0.00;0.00;;;;;;;;5000624;28;8914;-72
2024/03/03 21:38:36;;;;;;;;;0.00;0.00;;;;;;;;4999731;28;8794;-72
2024/03/03 21:41:03;;;;;;;;;0.00;0.00;;;;;;;;5001689;28;11477;-72
2024/03/03 21:43:28;;;;;;;;;0.00;0.00;;;;;;;;5007219;28;8818;-72
2024/03/03 21:45:53;;;;;;;;;0.00;0.00;;;;;;;;5006479;28;12565;-72
2024/03/03 21:48:19;;;;;;;;;0.00;0.00;;;;;;;;5010733;28;8798;-72
2024/03/03 21:50:45;;;;;;;;;0.00;0.00;;;;;;;;5025955;28;8810;-72
2024/03/03 21:53:11;;;;;;;;;0.00;0.00;;;;;;;;5010695;28;11515;-72
2024/03/03 21:55:36;;;;;;;;;0.00;0.00;;;;;;;;5009804;28;9012;-72
2024/03/03 21:58:02;;;;;;;;;0.50;0.50;;;;;;;;5009309;28;8786;-72
2024/03/03 22:00:28;;;;;;;;;0.00;0.00;;;;;;;;5025597;28;8837;-72
2024/03/03 22:02:53;;;;;;;;;0.00;0.00;;;;;;;;5010815;28;8864;-72
2024/03/03 22:05:18;;;;;;;;;0.00;0.00;;;;;;;;5010306;28;8814;-72
2024/03/03 22:07:44;;;;;;;;;0.00;0.00;;;;;;;;5010727;28;8802;-72
2024/03/03 22:10:11;;;;;;;;;1.00;1.00;;;;;;;;5010496;28;8775;-72
2024/03/03 22:12:37;;;;;;;;;0.00;0.00;;;;;;;;5010701;28;8782;-72
2024/03/03 22:15:03;;;;;;;;;0.00;0.00;;;;;;;;5025559;28;12378;-72
2024/03/03 22:17:28;;;;;;;;;0.00;0.00;;;;;;;;5010671;28;11466;-72
2024/03/03 22:19:53;;;;;;;;;0.00;0.00;;;;;;;;5010411;28;8778;-72
2024/03/03 22:22:19;;;;;;;;;1.25;1.00;;;;;;;;5010473;28;8794;-72
2024/03/03 22:24:45;;;;;;;;;0.50;0.50;;;;;;;;5025455;28;8818;-72
2024/03/03 22:27:10;;;;;;;;;0.00;0.00;;;;;;;;5011818;28;11472;-69
2024/03/03 22:29:35;;;;;;;;;1.00;1.00;;;;;;;;5012617;28;8831;-69
2024/03/03 22:32:01;;;;;;;;;0.75;0.00;;;;;;;;5013216;28;8832;-69
2024/03/03 22:34:26;;;;;;;;;1.50;1.00;;;;;;;;5004076;28;9665;-69
2024/03/03 22:36:51;;;;;;;;;0.00;0.00;;;;;;;;5012053;28;8834;-69
2024/03/03 22:39:17;;;;;;;;;0.00;0.00;;;;;;;;5014236;28;8782;-69
2024/03/03 22:41:42;;;;;;;;;0.75;0.75;;;;;;;;5014346;28;8887;-68
2024/03/03 22:44:07;;;;;;;;;0.00;0.00;;;;;;;;5014110;28;8798;-68
2024/03/03 22:46:33;;;;;;;;;0.00;0.00;;;;;;;;5007855;28;8842;-68
2024/03/03 22:48:59;;;;;;;;;1.25;0.00;;;;;;;;5029108;28;9568;-68
2024/03/03 22:51:24;;;;;;;;;0.00;0.00;;;;;;;;5013938;28;8856;-68
2024/03/03 22:53:49;;;;;;;;;1.00;1.00;;;;;;;;5013856;28;8829;-68
2024/03/03 22:56:15;;;;;;;;;1.00;1.00;;;;;;;;5013507;28;8841;-68
2024/03/03 22:58:40;;;;;;;;;1.00;1.00;;;;;;;;5013798;28;8794;-82
2024/03/03 23:01:06;;;;;;;;;0.00;0.00;;;;;;;;5029094;28;8895;-68
2024/03/03 23:03:31;;;;;;;;;0.00;0.00;;;;;;;;5014019;28;8868;-67
2024/03/03 23:05:56;;;;;;;;;0.00;0.00;;;;;;;;5013827;28;8857;-67
2024/03/03 23:08:22;;;;;;;;;0.00;0.00;;;;;;;;5013840;28;8909;-68
2024/03/03 23:10:47;;;;;;;;;0.00;0.00;;;;;;;;5013752;28;8838;-68
2024/03/03 23:13:12;;;;;;;;;0.75;0.00;;;;;;;;5028943;28;8889;-68
